Time;durP1;ratioP1;P1;durP2;ratioP2;P2;SDS_P1;SDS_P2;PMS_P1;PMS_P2;Temp;Humidity;BMP_temperature;BMP_pressure;BME280_temperature;BME280_humidity;BME280_pressure;Samples;Min_cycle;Max_cycle;Signal;HPM_P1;HPM_P2
2022/08/21 00:00:31;;;;;;;20.38;9.48;;;;;;;;;;5021592;28;20032;-70
2022/08/21 00:02:59;;;;;;;19.58;11.40;;;;;;;;;;5026790;28;20040;-70
2022/08/21 00:05:25;;;;;;;20.23;9.45;;;;;;;;;;5026538;28;20432;-71
2022/08/21 00:07:51;;;;;;;14.95;5.47;;;;;;;;;;5023814;28;20039;-70
2022/08/21 00:10:17;;;;;;;18.75;8.93;;;;;;;;;;5021409;28;20040;-71
2022/08/21 00:12:43;;;;;;;16.27;4.65;;;;;;;;;;5026876;28;20060;-71
2022/08/21 00:15:10;;;;;;;18.88;4.00;;;;;;;;;;5038528;28;20400;-71
2022/08/21 00:17:36;;;;;;;13.80;2.50;;;;;;;;;;5023561;28;20142;-71
2022/08/21 00:20:04;;;;;;;10.32;1.90;;;;;;;;;;5026344;28;20119;-72
2022/08/21 00:22:29;;;;;;;13.52;2.55;;;;;;;;;;5025129;28;20033;-71
2022/08/21 00:24:55;;;;;;;9.73;2.40;;;;;;;;;;5040793;28;20044;-70
2022/08/21 00:27:20;;;;;;;12.68;2.33;;;;;;;;;;5024854;28;20044;-70
2022/08/21 00:29:45;;;;;;;10.18;2.22;;;;;;;;;;5028267;28;20474;-70
2022/08/21 00:32:11;;;;;;;11.43;2.40;;;;;;;;;;5026346;28;20041;-71
2022/08/21 00:34:36;;;;;;;15.43;2.92;;;;;;;;;;5028984;28;20464;-70
2022/08/21 00:37:01;;;;;;;15.95;2.40;;;;;;;;;;5029380;28;20037;-70
2022/08/21 00:39:27;;;;;;;11.55;2.28;;;;;;;;;;5026827;28;20526;-71
2022/08/21 00:41:52;;;;;;;11.55;2.55;;;;;;;;;;5038828;28;20587;-72
2022/08/21 00:44:17;;;;;;;12.05;2.53;;;;;;;;;;5028438;28;20596;-71
2022/08/21 00:46:43;;;;;;;13.27;2.25;;;;;;;;;;5024480;28;20043;-70
2022/08/21 00:49:09;;;;;;;9.68;2.10;;;;;;;;;;5025500;28;20049;-70
2022/08/21 00:51:45;;;;;;;13.00;2.17;;;;;;;;;;5023690;28;20032;-71
2022/08/21 00:54:11;;;;;;;14.27;3.00;;;;;;;;;;5039762;28;20139;-72
2022/08/21 00:56:37;;;;;;;10.27;2.17;;;;;;;;;;5027422;28;20207;-71
2022/08/21 00:59:03;;;;;;;11.00;2.40;;;;;;;;;;5025830;28;20486;-71
2022/08/21 01:01:29;;;;;;;14.80;2.72;;;;;;;;;;5024566;28;20120;-71
2022/08/21 01:03:54;;;;;;;15.07;2.63;;;;;;;;;;5021676;28;20428;-72
2022/08/21 01:06:20;;;;;;;11.82;2.25;;;;;;;;;;5025989;28;20649;-72
2022/08/21 01:08:46;;;;;;;14.35;2.88;;;;;;;;;;5037142;28;20048;-71
2022/08/21 01:11:12;;;;;;;11.88;2.25;;;;;;;;;;5025889;28;20291;-71
2022/08/21 01:13:44;;;;;;;11.75;2.28;;;;;;;;;;5021837;28;20585;-72
2022/08/21 01:16:09;;;;;;;14.23;2.47;;;;;;;;;;5021115;28;20083;-70
2022/08/21 01:18:34;;;;;;;15.75;2.90;;;;;;;;;;5022552;28;20052;-68
2022/08/21 01:21:00;;;;;;;16.05;2.55;;;;;;;;;;5020514;28;20862;-68
2022/08/21 01:23:25;;;;;;;12.07;2.38;;;;;;;;;;5017751;28;20048;-68
2022/08/21 01:25:50;;;;;;;16.33;2.53;;;;;;;;;;5024058;28;20492;-67
2022/08/21 01:28:16;;;;;;;13.02;2.72;;;;;;;;;;5019673;28;20035;-68
2022/08/21 01:30:43;;;;;;;18.45;3.15;;;;;;;;;;5021058;28;20079;-68
2022/08/21 01:33:09;;;;;;;14.68;2.35;;;;;;;;;;5019128;28;20041;-68
2022/08/21 01:35:35;;;;;;;13.65;2.92;;;;;;;;;;5020326;28;20143;-69
2022/08/21 01:38:01;;;;;;;12.68;2.72;;;;;;;;;;5018351;28;20048;-68
2022/08/21 01:40:26;;;;;;;19.13;2.85;;;;;;;;;;5021117;28;20036;-68
2022/08/21 01:42:53;;;;;;;15.98;2.83;;;;;;;;;;5019840;28;20037;-68
2022/08/21 01:45:18;;;;;;;17.63;2.63;;;;;;;;;;5020053;28;20037;-68
2022/08/21 01:47:44;;;;;;;18.42;2.50;;;;;;;;;;5020623;28;20147;-68
2022/08/21 01:50:12;;;;;;;14.23;2.53;;;;;;;;;;5019844;28;20047;-67
2022/08/21 01:52:37;;;;;;;11.23;2.38;;;;;;;;;;5019986;28;20033;-68
2022/08/21 01:55:03;;;;;;;9.20;2.58;;;;;;;;;;5019511;28;20037;-67
2022/08/21 01:57:29;;;;;;;12.07;2.53;;;;;;;;;;5032954;28;20715;-68
2022/08/21 01:59:54;;;;;;;13.55;2.55;;;;;;;;;;5019037;28;20996;-67
2022/08/21 02:02:19;;;;;;;11.90;2.35;;;;;;;;;;5019299;28;20576;-68
2022/08/21 02:04:45;;;;;;;10.98;1.98;;;;;;;;;;5019375;28;20220;-68
2022/08/21 02:07:11;;;;;;;13.23;2.45;;;;;;;;;;5019668;28;20316;-69
2022/08/21 02:09:37;;;;;;;14.23;2.45;;;;;;;;;;5019297;28;20488;-68
2022/08/21 02:12:02;;;;;;;12.38;2.35;;;;;;;;;;5019861;28;20068;-68
2022/08/21 02:14:28;;;;;;;15.98;2.50;;;;;;;;;;5019612;28;20174;-68
2022/08/21 02:16:53;;;;;;;14.02;2.30;;;;;;;;;;5019133;28;20036;-67
2022/08/21 02:19:18;;;;;;;12.77;2.47;;;;;;;;;;5018562;28;20482;-68
2022/08/21 02:21:44;;;;;;;14.73;2.75;;;;;;;;;;5019830;28;20345;-69
2022/08/21 02:24:11;;;;;;;15.55;2.40;;;;;;;;;;5007847;28;20047;-68
2022/08/21 02:26:36;;;;;;;15.52;2.50;;;;;;;;;;5018165;28;20729;-68
2022/08/21 02:29:02;;;;;;;11.00;2.20;;;;;;;;;;5019351;28;20132;-68
2022/08/21 02:31:28;;;;;;;13.85;2.35;;;;;;;;;;5031618;28;20447;-67
2022/08/21 02:33:54;;;;;;;15.25;2.97;;;;;;;;;;5021042;28;20262;-67
2022/08/21 02:36:19;;;;;;;19.35;2.85;;;;;;;;;;5017576;28;20586;-69
2022/08/21 02:38:45;;;;;;;14.90;2.40;;;;;;;;;;5020140;28;20090;-68
2022/08/21 02:41:13;;;;;;;14.23;2.63;;;;;;;;;;5021777;28;20501;-67
2022/08/21 02:43:38;;;;;;;14.60;2.78;;;;;;;;;;5018940;28;20248;-69
2022/08/21 02:46:04;;;;;;;13.75;2.50;;;;;;;;;;5024110;28;20078;-69
2022/08/21 02:48:32;;;;;;;11.80;2.55;;;;;;;;;;5021600;28;20041;-70
2022/08/21 02:50:59;;;;;;;17.73;2.63;;;;;;;;;;5023648;28;20712;-71
2022/08/21 02:53:25;;;;;;;11.93;2.63;;;;;;;;;;5025089;28;20040;-70
2022/08/21 02:55:50;;;;;;;15.80;2.90;;;;;;;;;;5026623;28;20032;-69
2022/08/21 02:58:17;;;;;;;17.70;2.92;;;;;;;;;;5009140;28;20499;-70
2022/08/21 03:00:43;;;;;;;17.58;4.38;;;;;;;;;;5022666;28;20044;-69
2022/08/21 03:03:09;;;;;;;23.10;6.07;;;;;;;;;;5020170;28;20043;-71
2022/08/21 03:05:36;;;;;;;23.17;6.20;;;;;;;;;;5022036;28;20799;-71
2022/08/21 03:08:03;;;;;;;19.02;6.43;;;;;;;;;;5023194;28;20028;-69
2022/08/21 03:10:30;;;;;;;20.42;6.68;;;;;;;;;;5020864;28;20036;-69
2022/08/21 03:12:56;;;;;;;25.42;7.55;;;;;;;;;;5034788;28;20525;-69
2022/08/21 03:15:23;;;;;;;17.77;7.05;;;;;;;;;;5019793;28;20033;-67
2022/08/21 03:17:50;;;;;;;20.52;6.55;;;;;;;;;;5033582;28;21408;-67
2022/08/21 03:20:16;;;;;;;17.33;6.75;;;;;;;;;;5017237;28;20032;-68
2022/08/21 03:22:42;;;;;;;20.35;6.07;;;;;;;;;;5018445;28;20036;-68
2022/08/21 03:25:08;;;;;;;13.30;4.75;;;;;;;;;;5017406;28;20817;-67
2022/08/21 03:27:36;;;;;;;16.52;5.65;;;;;;;;;;5016726;28;20040;-68
2022/08/21 03:30:03;;;;;;;18.35;5.82;;;;;;;;;;5017692;28;20051;-68
2022/08/21 03:32:28;;;;;;;21.27;6.43;;;;;;;;;;5019487;28;20248;-68
2022/08/21 03:34:54;;;;;;;21.98;7.97;;;;;;;;;;5016180;28;20061;-68
2022/08/21 03:37:19;;;;;;;19.70;7.43;;;;;;;;;;5017150;28;20343;-68
2022/08/21 03:39:45;;;;;;;20.08;8.10;;;;;;;;;;5017256;28;20555;-68
2022/08/21 03:42:11;;;;;;;23.38;7.15;;;;;;;;;;5019822;28;20472;-68
2022/08/21 03:44:37;;;;;;;22.38;7.65;;;;;;;;;;5031150;28;20021;-68
2022/08/21 03:47:03;;;;;;;27.98;8.75;;;;;;;;;;5016604;28;20802;-68
2022/08/21 03:49:28;;;;;;;26.92;7.72;;;;;;;;;;5016554;28;20036;-69
2022/08/21 03:51:54;;;;;;;17.58;7.32;;;;;;;;;;5033279;28;20033;-69
2022/08/21 03:54:19;;;;;;;21.95;8.18;;;;;;;;;;5019364;28;20033;-67
2022/08/21 03:56:45;;;;;;;23.55;8.35;;;;;;;;;;5017183;28;20057;-67
2022/08/21 03:59:11;;;;;;;26.63;10.35;;;;;;;;;;5017062;28;20446;-67
2022/08/21 04:01:37;;;;;;;22.50;7.95;;;;;;;;;;5030296;28;20044;-67
2022/08/21 04:04:03;;;;;;;24.33;6.55;;;;;;;;;;5019116;28;20302;-67
2022/08/21 04:06:29;;;;;;;19.25;6.32;;;;;;;;;;5019337;28;20036;-67
2022/08/21 04:08:54;;;;;;;17.13;6.50;;;;;;;;;;5016931;28;20120;-69
2022/08/21 04:11:20;;;;;;;18.50;7.22;;;;;;;;;;5031943;28;20537;-68
2022/08/21 04:13:47;;;;;;;21.70;7.68;;;;;;;;;;5015055;28;20143;-70
2022/08/21 04:16:14;;;;;;;28.48;9.85;;;;;;;;;;5019112;28;20315;-71
2022/08/21 04:18:39;;;;;;;29.25;10.25;;;;;;;;;;5020479;28;20448;-71
2022/08/21 04:21:05;;;;;;;21.08;7.72;;;;;;;;;;5022473;28;20481;-70
2022/08/21 04:23:30;;;;;;;21.02;7.60;;;;;;;;;;5024853;28;20043;-72
2022/08/21 04:25:56;;;;;;;18.40;5.95;;;;;;;;;;5023110;28;21217;-71
2022/08/21 04:28:23;;;;;;;16.17;4.68;;;;;;;;;;5027038;28;20045;-69
2022/08/21 04:30:50;;;;;;;15.05;5.03;;;;;;;;;;5024702;28;20149;-69
2022/08/21 04:33:15;;;;;;;12.30;5.30;;;;;;;;;;5027097;28;20045;-69
2022/08/21 04:35:41;;;;;;;15.60;5.30;;;;;;;;;;5027587;28;22046;-69
2022/08/21 04:38:07;;;;;;;18.63;5.55;;;;;;;;;;5037692;28;20139;-70
2022/08/21 04:40:32;;;;;;;18.45;6.22;;;;;;;;;;5024613;28;20108;-70
2022/08/21 04:43:02;;;;;;;32.22;8.57;;;;;;;;;;5023974;28;20096;-70
2022/08/21 04:45:29;;;;;;;28.10;10.23;;;;;;;;;;5024837;28;20042;-72
2022/08/21 04:47:56;;;;;;;22.63;9.23;;;;;;;;;;5025141;28;20029;-71
2022/08/21 04:50:23;;;;;;;20.10;7.50;;;;;;;;;;5024094;28;20051;-70
2022/08/21 04:52:49;;;;;;;19.40;7.28;;;;;;;;;;5023269;28;20041;-70
2022/08/21 04:55:16;;;;;;;22.67;7.50;;;;;;;;;;5024609;28;20273;-71
2022/08/21 04:57:41;;;;;;;17.27;6.95;;;;;;;;;;5043632;27;20039;-70
2022/08/21 05:00:07;;;;;;;24.40;7.38;;;;;;;;;;5020550;28;20036;-68
2022/08/21 05:02:33;;;;;;;21.67;6.75;;;;;;;;;;5012317;28;20124;-68
2022/08/21 05:04:59;;;;;;;19.85;6.78;;;;;;;;;;5016088;28;20330;-68
2022/08/21 05:07:26;;;;;;;25.60;7.78;;;;;;;;;;5021691;28;20816;-71
2022/08/21 05:09:52;;;;;;;25.90;7.90;;;;;;;;;;5023895;28;20460;-70
2022/08/21 05:12:17;;;;;;;26.38;12.10;;;;;;;;;;5023104;28;20028;-71
2022/08/21 05:14:43;;;;;;;23.35;8.43;;;;;;;;;;5023000;28;20120;-70
2022/08/21 05:17:09;;;;;;;19.90;6.53;;;;;;;;;;5023175;28;20369;-70
2022/08/21 05:19:35;;;;;;;20.45;6.70;;;;;;;;;;5022503;28;20588;-68
2022/08/21 05:22:01;;;;;;;23.50;8.38;;;;;;;;;;5022848;28;20069;-70
2022/08/21 05:24:27;;;;;;;19.90;7.53;;;;;;;;;;5026259;28;20025;-69
2022/08/21 05:26:52;;;;;;;19.08;6.18;;;;;;;;;;5026611;28;20423;-70
2022/08/21 05:29:18;;;;;;;21.75;7.88;;;;;;;;;;5025167;28;22048;-69
2022/08/21 05:31:43;;;;;;;23.42;6.47;;;;;;;;;;5021706;28;20068;-67
2022/08/21 05:34:09;;;;;;;16.25;6.55;;;;;;;;;;5022133;28;20192;-70
2022/08/21 05:36:35;;;;;;;20.67;7.07;;;;;;;;;;5025506;28;20037;-69
2022/08/21 05:39:00;;;;;;;19.80;9.02;;;;;;;;;;5039889;28;20093;-67
2022/08/21 05:41:25;;;;;;;25.23;10.23;;;;;;;;;;5018592;28;20461;-69
2022/08/21 05:43:51;;;;;;;25.48;8.07;;;;;;;;;;5020648;28;20032;-68
2022/08/21 05:46:16;;;;;;;28.38;8.98;;;;;;;;;;5019638;28;23085;-68
2022/08/21 05:48:42;;;;;;;29.67;10.38;;;;;;;;;;5019762;28;20041;-68
2022/08/21 05:51:09;;;;;;;27.08;8.63;;;;;;;;;;5020771;28;20032;-70
2022/08/21 05:53:35;;;;;;;21.58;7.60;;;;;;;;;;5024847;28;20036;-70
2022/08/21 05:56:03;;;;;;;27.63;8.23;;;;;;;;;;5013027;28;20064;-67
2022/08/21 05:58:29;;;;;;;34.58;8.48;;;;;;;;;;5049087;27;20128;-67
2022/08/21 06:00:54;;;;;;;23.15;7.85;;;;;;;;;;5019249;28;20134;-67
2022/08/21 06:03:24;;;;;;;24.15;8.15;;;;;;;;;;5017289;28;20032;-67
2022/08/21 06:05:49;;;;;;;20.70;8.13;;;;;;;;;;5041418;27;20345;-70
2022/08/21 06:08:16;;;;;;;18.80;6.47;;;;;;;;;;5047353;27;22271;-71
2022/08/21 06:10:42;;;;;;;18.88;7.88;;;;;;;;;;5025682;28;20033;-70
2022/08/21 06:13:07;;;;;;;20.25;7.90;;;;;;;;;;5026073;28;20036;-70
2022/08/21 06:15:33;;;;;;;17.23;6.30;;;;;;;;;;5021112;28;20101;-68
2022/08/21 06:17:58;;;;;;;22.08;7.25;;;;;;;;;;5022441;28;20052;-70
2022/08/21 06:20:23;;;;;;;20.30;8.18;;;;;;;;;;5022686;28;20032;-71
2022/08/21 06:22:49;;;;;;;20.75;7.72;;;;;;;;;;5022491;28;20044;-71
2022/08/21 06:25:15;;;;;;;23.02;6.97;;;;;;;;;;5022254;28;20217;-71
2022/08/21 06:27:40;;;;;;;20.77;7.00;;;;;;;;;;5021454;28;20040;-72
2022/08/21 06:30:07;;;;;;;21.42;7.32;;;;;;;;;;5022019;28;20124;-71
2022/08/21 06:32:32;;;;;;;27.05;8.32;;;;;;;;;;5010630;28;20097;-70
2022/08/21 06:34:58;;;;;;;23.63;9.93;;;;;;;;;;5036487;27;20040;-71
2022/08/21 06:37:24;;;;;;;24.08;6.90;;;;;;;;;;5011264;28;20029;-69
2022/08/21 06:39:49;;;;;;;20.80;8.73;;;;;;;;;;5019352;28;20132;-68
2022/08/21 06:42:15;;;;;;;16.00;5.18;;;;;;;;;;5018295;28;20120;-69
2022/08/21 06:44:41;;;;;;;20.45;9.73;;;;;;;;;;5017274;28;20028;-68
2022/08/21 06:47:06;;;;;;;20.38;6.70;;;;;;;;;;5025300;28;20040;-70
2022/08/21 06:49:32;;;;;;;22.10;7.05;;;;;;;;;;5024335;28;20792;-70
2022/08/21 06:51:57;;;;;;;21.85;7.28;;;;;;;;;;5020787;28;20036;-67
2022/08/21 06:54:23;;;;;;;17.55;4.93;;;;;;;;;;5023924;28;20021;-71
2022/08/21 06:56:48;;;;;;;16.63;6.03;;;;;;;;;;5025206;28;20102;-70
2022/08/21 06:59:13;;;;;;;22.42;7.90;;;;;;;;;;5026308;28;20631;-70
2022/08/21 07:01:39;;;;;;;16.10;5.25;;;;;;;;;;5020457;28;20438;-68
2022/08/21 07:04:04;;;;;;;14.07;4.32;;;;;;;;;;5017437;28;20052;-71
2022/08/21 07:06:30;;;;;;;24.27;8.00;;;;;;;;;;5022308;28;20082;-71
2022/08/21 07:08:56;;;;;;;23.90;7.10;;;;;;;;;;5023862;28;20134;-72
2022/08/21 07:11:22;;;;;;;19.98;6.68;;;;;;;;;;5036260;28;20525;-67
2022/08/21 07:13:48;;;;;;;17.80;6.05;;;;;;;;;;5017713;28;20033;-70
2022/08/21 07:16:14;;;;;;;12.60;4.13;;;;;;;;;;5023517;28;20136;-68
2022/08/21 07:18:39;;;;;;;14.65;3.78;;;;;;;;;;5017156;28;20045;-68
2022/08/21 07:21:07;;;;;;;14.38;3.20;;;;;;;;;;5018462;28;21712;-69
2022/08/21 07:23:33;;;;;;;12.95;3.00;;;;;;;;;;5017718;28;20066;-67
2022/08/21 07:26:00;;;;;;;12.15;3.33;;;;;;;;;;5031566;28;20047;-68
2022/08/21 07:28:25;;;;;;;12.82;3.40;;;;;;;;;;5022133;28;20087;-71
2022/08/21 07:30:52;;;;;;;16.48;3.60;;;;;;;;;;5022082;28;22278;-71
2022/08/21 07:33:18;;;;;;;9.05;2.75;;;;;;;;;;5020469;28;20063;-68
2022/08/21 07:35:43;;;;;;;13.50;3.05;;;;;;;;;;5022675;28;20127;-71
2022/08/21 07:38:09;;;;;;;15.55;2.50;;;;;;;;;;5012626;28;20044;-67
2022/08/21 07:40:35;;;;;;;11.20;2.45;;;;;;;;;;5017855;28;20193;-69
2022/08/21 07:43:00;;;;;;;11.95;2.97;;;;;;;;;;5018943;28;20070;-68
2022/08/21 07:45:26;;;;;;;11.85;2.78;;;;;;;;;;5016969;28;20041;-67
2022/08/21 07:47:52;;;;;;;14.80;2.80;;;;;;;;;;5018344;28;20526;-68
2022/08/21 07:50:17;;;;;;;9.82;2.47;;;;;;;;;;5011251;28;20102;-67
2022/08/21 07:52:43;;;;;;;15.50;3.13;;;;;;;;;;5016940;28;20963;-67
2022/08/21 07:55:14;;;;;;;14.27;2.80;;;;;;;;;;5018442;28;20592;-67
2022/08/21 07:57:39;;;;;;;9.38;2.50;;;;;;;;;;5019428;27;20044;-69
2022/08/21 08:00:06;;;;;;;12.57;2.83;;;;;;;;;;5018637;27;20060;-69
2022/08/21 08:02:31;;;;;;;14.27;3.30;;;;;;;;;;5013902;28;20048;-68
2022/08/21 08:05:00;;;;;;;11.10;2.80;;;;;;;;;;5020731;28;20406;-67
2022/08/21 08:07:26;;;;;;;14.38;2.90;;;;;;;;;;5036081;28;20147;-68
2022/08/21 08:09:51;;;;;;;10.05;2.30;;;;;;;;;;5020962;28;20254;-69
2022/08/21 08:12:18;;;;;;;9.07;2.33;;;;;;;;;;5021797;28;20382;-68
2022/08/21 08:14:43;;;;;;;9.13;2.67;;;;;;;;;;5020509;28;20033;-70
2022/08/21 08:17:08;;;;;;;10.05;2.85;;;;;;;;;;5022667;28;20124;-69
2022/08/21 08:19:34;;;;;;;14.88;3.05;;;;;;;;;;5024483;28;20047;-69
2022/08/21 08:22:00;;;;;;;12.82;2.75;;;;;;;;;;5035141;28;20716;-68
2022/08/21 08:24:25;;;;;;;10.50;2.63;;;;;;;;;;5018895;28;20040;-68
2022/08/21 08:26:51;;;;;;;14.10;2.85;;;;;;;;;;5022937;28;20595;-68
2022/08/21 08:29:16;;;;;;;16.17;2.60;;;;;;;;;;5018319;28;20111;-68
2022/08/21 08:31:41;;;;;;;13.65;2.78;;;;;;;;;;5019429;28;20214;-68
2022/08/21 08:34:07;;;;;;;8.60;2.67;;;;;;;;;;5035454;28;20032;-68
2022/08/21 08:36:34;;;;;;;10.15;2.38;;;;;;;;;;5020788;28;20501;-68
2022/08/21 08:39:00;;;;;;;10.55;2.17;;;;;;;;;;5019591;28;22347;-68
2022/08/21 08:41:26;;;;;;;9.15;2.17;;;;;;;;;;5023005;28;20048;-68
2022/08/21 08:43:53;;;;;;;9.10;1.90;;;;;;;;;;5020924;28;20037;-68
2022/08/21 08:46:22;;;;;;;8.95;2.22;;;;;;;;;;5020508;28;20036;-67
2022/08/21 08:48:54;;;;;;;8.10;2.15;;;;;;;;;;5022406;28;20032;-68
2022/08/21 08:51:39;;;;;;;9.07;2.40;;;;;;;;;;5023191;28;20571;-68
2022/08/21 08:54:08;;;;;;;10.93;2.22;;;;;;;;;;5019893;28;20071;-68
2022/08/21 08:56:33;;;;;;;7.65;2.10;;;;;;;;;;5019582;28;20040;-69
2022/08/21 08:59:22;;;;;;;7.65;1.90;;;;;;;;;;5033247;28;20032;-68
2022/08/21 09:01:48;;;;;;;7.05;1.92;;;;;;;;;;5014555;28;20677;-69
2022/08/21 09:04:18;;;;;;;5.20;1.70;;;;;;;;;;5019361;28;20151;-69
2022/08/21 09:06:47;;;;;;;8.73;1.80;;;;;;;;;;5019233;28;20316;-68
2022/08/21 09:09:24;;;;;;;9.57;2.25;;;;;;;;;;5021297;28;20852;-68
2022/08/21 09:12:05;;;;;;;7.20;1.80;;;;;;;;;;5018090;28;20040;-68
2022/08/21 09:14:49;;;;;;;7.57;1.90;;;;;;;;;;5032888;28;20028;-68
2022/08/21 09:17:17;;;;;;;10.05;2.25;;;;;;;;;;5020557;28;20066;-68
2022/08/21 09:19:56;;;;;;;8.63;1.90;;;;;;;;;;5020164;28;20575;-68
2022/08/21 09:22:40;;;;;;;7.63;1.77;;;;;;;;;;5019829;28;20687;-69
2022/08/21 09:25:07;;;;;;;12.00;1.90;;;;;;;;;;5021094;28;20443;-68
2022/08/21 09:27:33;;;;;;;7.32;1.67;;;;;;;;;;5031507;28;20523;-68
2022/08/21 09:29:59;;;;;;;6.57;1.83;;;;;;;;;;5020808;28;20035;-68
2022/08/21 09:32:30;;;;;;;7.60;1.85;;;;;;;;;;5021400;28;20060;-68
2022/08/21 09:35:16;;;;;;;7.97;1.98;;;;;;;;;;5034244;28;20549;-68
2022/08/21 09:37:44;;;;;;;9.15;2.20;;;;;;;;;;5026594;28;20458;-70
2022/08/21 09:40:23;;;;;;;9.82;1.85;;;;;;;;;;5030665;28;20286;-69
2022/08/21 09:42:55;;;;;;;7.93;1.80;;;;;;;;;;5021494;28;20521;-69
2022/08/21 09:45:21;;;;;;;6.53;1.60;;;;;;;;;;5026194;28;20074;-69
2022/08/21 09:47:46;;;;;;;8.80;2.00;;;;;;;;;;5026341;28;20588;-69
2022/08/21 09:50:15;;;;;;;7.45;1.85;;;;;;;;;;5022324;28;20043;-70
2022/08/21 09:52:45;;;;;;;13.57;2.33;;;;;;;;;;5026772;28;20041;-68
2022/08/21 09:58:04;;;;;;;9.00;1.98;;;;;;;;;;5019689;28;20290;-67
2022/08/21 10:00:31;;;;;;;8.25;1.77;;;;;;;;;;5023922;28;20090;-66
2022/08/21 10:03:12;;;;;;;6.93;1.70;;;;;;;;;;5026649;28;20036;-67
2022/08/21 10:05:38;;;;;;;7.22;2.08;;;;;;;;;;5021396;28;20144;-68
2022/08/21 10:08:05;;;;;;;7.43;1.70;;;;;;;;;;5056382;27;20032;-68
2022/08/21 10:10:32;;;;;;;8.32;1.70;;;;;;;;;;5026109;28;20033;-68
2022/08/21 10:13:15;;;;;;;5.80;1.70;;;;;;;;;;5026312;28;20052;-68
2022/08/21 10:15:50;;;;;;;6.40;1.88;;;;;;;;;;5044147;28;20090;-67
2022/08/21 10:18:34;;;;;;;12.23;2.33;;;;;;;;;;5028591;28;20950;-68
2022/08/21 10:21:18;;;;;;;9.35;1.83;;;;;;;;;;5029758;28;20814;-67
2022/08/21 10:23:49;;;;;;;10.55;2.20;;;;;;;;;;5029279;28;20044;-68
2022/08/21 10:26:15;;;;;;;8.02;2.03;;;;;;;;;;5029278;28;20271;-68
2022/08/21 10:28:53;;;;;;;12.50;2.10;;;;;;;;;;5029355;28;20037;-68
2022/08/21 10:31:26;;;;;;;9.93;1.90;;;;;;;;;;5028901;28;20574;-68
2022/08/21 10:34:13;;;;;;;7.35;1.83;;;;;;;;;;5027949;28;20866;-69
2022/08/21 10:36:58;;;;;;;7.72;2.00;;;;;;;;;;5019786;28;20079;-69
2022/08/21 10:39:47;;;;;;;10.55;2.05;;;;;;;;;;5018437;28;20143;-70
2022/08/21 10:42:13;;;;;;;7.35;1.75;;;;;;;;;;4986479;27;20062;-68
2022/08/21 10:45:02;;;;;;;10.00;2.15;;;;;;;;;;5042637;27;20521;-68
2022/08/21 10:47:27;;;;;;;8.63;1.80;;;;;;;;;;5017629;28;20147;-67
2022/08/21 10:49:56;;;;;;;10.05;2.08;;;;;;;;;;5019669;28;20782;-68
2022/08/21 10:52:24;;;;;;;8.52;1.65;;;;;;;;;;5016971;28;20036;-69
2022/08/21 10:54:50;;;;;;;7.70;1.63;;;;;;;;;;5018287;28;20451;-70
2022/08/21 10:57:24;;;;;;;11.98;2.13;;;;;;;;;;5034765;28;20033;-70
2022/08/21 10:59:57;;;;;;;7.10;2.38;;;;;;;;;;5023346;28;20109;-70
2022/08/21 11:02:23;;;;;;;10.52;1.90;;;;;;;;;;5024611;28;20032;-71
2022/08/21 11:05:05;;;;;;;8.40;2.22;;;;;;;;;;5033760;28;20032;-71
2022/08/21 11:07:32;;;;;;;7.30;1.80;;;;;;;;;;5020521;28;20071;-70
2022/08/21 11:09:59;;;;;;;8.52;2.03;;;;;;;;;;5020304;28;21703;-70
2022/08/21 11:12:27;;;;;;;10.70;2.22;;;;;;;;;;5021236;28;20835;-69
2022/08/21 11:15:22;;;;;;;7.82;2.03;;;;;;;;;;5020151;28;20032;-69
2022/08/21 11:17:52;;;;;;;8.93;2.03;;;;;;;;;;4982364;28;20534;-70
2022/08/21 11:20:17;;;;;;;8.52;2.08;;;;;;;;;;5023420;28;20029;-71
2022/08/21 11:23:09;;;;;;;7.32;2.10;;;;;;;;;;5021372;28;20072;-71
2022/08/21 11:25:34;;;;;;;;;;;;;;;;;;5024944;28;20074;-70
2022/08/21 11:28:02;;;;;;;9.35;2.03;;;;;;;;;;5022118;28;20452;-71
2022/08/21 11:30:45;;;;;;;13.45;2.25;;;;;;;;;;5018927;28;20236;-70
2022/08/21 11:33:28;;;;;;;9.70;2.17;;;;;;;;;;5020164;28;20301;-71
2022/08/21 11:36:03;;;;;;;11.10;2.10;;;;;;;;;;5038154;28;20734;-71
2022/08/21 11:38:42;;;;;;;8.20;1.90;;;;;;;;;;5024308;28;20818;-73
2022/08/21 11:41:14;;;;;;;8.63;1.88;;;;;;;;;;5023588;28;20041;-71
2022/08/21 11:43:42;;;;;;;7.78;1.98;;;;;;;;;;5026886;28;20301;-71
2022/08/21 11:46:08;;;;;;;9.40;2.00;;;;;;;;;;5025345;28;20322;-70
2022/08/21 11:48:36;;;;;;;7.57;2.00;;;;;;;;;;5027565;28;20489;-70
2022/08/21 11:51:05;;;;;;;6.93;1.80;;;;;;;;;;5013760;22;20050;-67
2022/08/21 11:53:34;;;;;;;7.57;1.63;;;;;;;;;;4971025;28;20041;-66
2022/08/21 11:55:59;;;;;;;7.35;1.73;;;;;;;;;;4971725;28;20037;-65
2022/08/21 11:58:27;;;;;;;6.57;1.60;;;;;;;;;;4973330;28;20045;-66
2022/08/21 12:00:57;;;;;;;9.02;1.85;;;;;;;;;;4960267;28;20055;-66
2022/08/21 12:03:30;;;;;;;10.57;1.98;;;;;;;;;;4971581;28;20517;-67
2022/08/21 12:06:01;;;;;;;6.75;1.73;;;;;;;;;;4972789;28;20041;-69
2022/08/21 12:08:29;;;;;;;6.07;1.65;;;;;;;;;;4972222;28;20037;-69
2022/08/21 12:11:03;;;;;;;11.23;2.00;;;;;;;;;;4972434;28;20625;-69
2022/08/21 12:13:31;;;;;;;8.80;2.28;;;;;;;;;;4973475;28;20478;-67
2022/08/21 12:16:05;;;;;;;10.70;1.98;;;;;;;;;;4972592;28;20030;-68
2022/08/21 12:18:31;;;;;;;8.00;1.80;;;;;;;;;;4955253;28;20046;-70
2022/08/21 12:20:57;;;;;;;8.43;1.80;;;;;;;;;;4958657;28;20052;-68
2022/08/21 12:23:27;;;;;;;10.63;2.22;;;;;;;;;;4953460;28;20029;-67
2022/08/21 12:26:00;;;;;;;9.07;1.83;;;;;;;;;;4975730;28;20299;-68
2022/08/21 12:28:27;;;;;;;9.35;2.05;;;;;;;;;;4972631;28;20573;-68
2022/08/21 12:30:52;;;;;;;6.95;1.80;;;;;;;;;;4972569;28;20061;-68
2022/08/21 12:33:35;;;;;;;6.93;1.80;;;;;;;;;;4955172;28;20141;-69
2022/08/21 12:36:03;;;;;;;6.03;1.50;;;;;;;;;;4972574;28;20521;-68
2022/08/21 12:38:33;;;;;;;8.70;1.90;;;;;;;;;;4954143;28;20046;-68
2022/08/21 12:41:00;;;;;;;6.70;1.87;;;;;;;;;;4969815;28;20045;-67
2022/08/21 12:43:30;;;;;;;9.57;2.08;;;;;;;;;;4977639;28;20240;-69
2022/08/21 12:45:58;;;;;;;7.63;1.92;;;;;;;;;;4979105;28;20053;-69
2022/08/21 12:48:29;;;;;;;11.35;2.00;;;;;;;;;;4975964;28;20562;-67
2022/08/21 12:50:57;;;;;;;5.35;1.60;;;;;;;;;;4977156;28;20432;-67
2022/08/21 12:53:22;;;;;;;6.78;1.83;;;;;;;;;;4976666;28;20033;-68
2022/08/21 12:55:48;;;;;;;6.78;1.90;;;;;;;;;;4974617;28;20040;-65
2022/08/21 12:58:21;;;;;;;7.63;2.30;;;;;;;;;;4976528;28;20045;-68
2022/08/21 13:00:54;;;;;;;10.55;2.05;;;;;;;;;;4975887;28;20548;-67
2022/08/21 13:03:19;;;;;;;6.75;1.98;;;;;;;;;;4975512;28;20030;-66
2022/08/21 13:05:47;;;;;;;12.57;2.28;;;;;;;;;;4975909;28;20052;-67
2022/08/21 13:08:13;;;;;;;7.88;2.08;;;;;;;;;;4976772;28;20148;-67
2022/08/21 13:10:40;;;;;;;9.07;2.00;;;;;;;;;;4976193;28;20265;-67
2022/08/21 13:13:09;;;;;;;7.97;1.70;;;;;;;;;;4975761;28;20038;-66
2022/08/21 13:15:37;;;;;;;8.45;2.00;;;;;;;;;;4978197;28;20604;-67
2022/08/21 13:18:03;;;;;;;5.35;1.52;;;;;;;;;;4975018;28;20549;-68
2022/08/21 13:20:37;;;;;;;6.93;1.98;;;;;;;;;;4975759;28;20313;-68
2022/08/21 13:23:05;;;;;;;9.13;1.80;;;;;;;;;;4974705;28;20549;-68
2022/08/21 13:25:37;;;;;;;9.43;2.00;;;;;;;;;;4974194;28;20038;-68
2022/08/21 13:28:07;;;;;;;12.32;2.50;;;;;;;;;;4964450;28;20033;-68
2022/08/21 13:30:35;;;;;;;9.10;2.08;;;;;;;;;;4990081;28;20030;-68
2022/08/21 13:33:05;;;;;;;7.00;1.85;;;;;;;;;;4990695;28;21929;-67
2022/08/21 13:35:34;;;;;;;10.98;2.05;;;;;;;;;;4993239;28;20033;-67
2022/08/21 13:38:00;;;;;;;7.90;1.77;;;;;;;;;;4990984;28;20613;-67
2022/08/21 13:40:28;;;;;;;9.65;1.77;;;;;;;;;;4983677;28;20137;-67
2022/08/21 13:42:54;;;;;;;10.23;2.47;;;;;;;;;;4978141;28;20041;-67
2022/08/21 13:45:25;;;;;;;8.60;1.83;;;;;;;;;;4985857;28;20232;-68
2022/08/21 13:47:52;;;;;;;10.05;2.10;;;;;;;;;;4987159;28;20095;-66
2022/08/21 13:50:19;;;;;;;8.77;1.80;;;;;;;;;;4955679;28;20056;-67
2022/08/21 13:53:04;;;;;;;7.63;1.75;;;;;;;;;;4971348;28;20038;-67
2022/08/21 13:55:43;;;;;;;10.98;2.05;;;;;;;;;;4969004;28;20048;-67
2022/08/21 13:58:10;;;;;;;8.05;2.00;;;;;;;;;;4964113;28;20046;-66
2022/08/21 14:00:45;;;;;;;8.23;1.88;;;;;;;;;;4966151;28;20130;-67
2022/08/21 14:03:12;;;;;;;12.93;2.60;;;;;;;;;;4964762;28;20117;-68
2022/08/21 14:05:43;;;;;;;5.45;1.80;;;;;;;;;;4973564;28;20112;-68
2022/08/21 14:08:13;;;;;;;7.63;1.95;;;;;;;;;;4976386;28;20089;-67
2022/08/21 14:10:44;;;;;;;8.13;2.00;;;;;;;;;;4972043;28;20034;-67
2022/08/21 14:13:27;;;;;;;7.68;2.00;;;;;;;;;;4976147;28;20040;-68
2022/08/21 14:16:00;;;;;;;8.68;1.88;;;;;;;;;;4973443;28;20474;-67
2022/08/21 14:18:26;;;;;;;12.38;2.28;;;;;;;;;;4970298;28;20042;-68
2022/08/21 14:20:51;;;;;;;6.75;1.63;;;;;;;;;;4988678;28;20042;-67
2022/08/21 14:23:26;;;;;;;6.32;2.22;;;;;;;;;;4973934;28;20049;-68
2022/08/21 14:25:51;;;;;;;8.00;1.83;;;;;;;;;;4955454;28;20035;-67
2022/08/21 14:28:25;;;;;;;9.68;2.10;;;;;;;;;;4960803;28;20099;-68
2022/08/21 14:30:51;;;;;;;9.07;2.00;;;;;;;;;;4968533;28;20202;-69
2022/08/21 14:33:23;;;;;;;9.07;2.00;;;;;;;;;;4967562;28;20038;-69
2022/08/21 14:35:50;;;;;;;7.85;1.80;;;;;;;;;;4961403;28;20111;-69
2022/08/21 14:38:20;;;;;;;8.98;2.20;;;;;;;;;;4971276;28;20358;-67
2022/08/21 14:40:52;;;;;;;6.90;1.70;;;;;;;;;;4973164;28;20034;-68